Eagle Springs, NC (27242)

2:29 PM EDT on July 03, 2015 (GMT -0400)
7 Lks N | | Change Station
CLOSE
Current Station
Personal Weather Station
Location: Seven Lakes, NC
Elevation: 540 ft
Nearby Weather Stations

Elev 540 ft 35.28 °N, 79.57 °W | Updated 27 seconds ago

Overcast
Overcast
78.3 °F
Feels Like 81 °F
N
0.0
Wind Variable Wind from SE
Gusts 0.0 mph

Today
High -- | Low -- °F
--% Chance of Precip.
Yesterday
High -- | Low -- °F
Precip. -- in
6:08 AM 8:37 PM
Waning Gibbous, 96% visible
Pressure 29.94 in
Visibility 10.0 miles
Clouds Mostly Cloudy 600 ft
Mostly Cloudy 1200 ft
Overcast 1800 ft
Heat Index 81 °F
Dew Point 76 °F
Humidity 91%
Rainfall 0.49 in
Snow Depth Not available.
UV 4 out of 12
Pollen 1.00 out of 12
Air Quality Not available.
Flu Activity Not available.
METAR KSOP 031815Z AUTO 18005KT 10SM BKN006 BKN012 OVC018 23/22 A2994 RMK AO1

More Conditions Fewer Conditions

Pressure 29.94 in
Visibility 10.0 miles
Clouds Mostly Cloudy 600 ft
Mostly Cloudy 1200 ft
Overcast 1800 ft
Heat Index 81 °F
Dew Point 76 °F
Humidity 91%
Rainfall 0.49 in
Snow Depth Not available.
UV 4 out of 12
Pollen 1.00 out of 12
Air Quality Not available.
Flu Activity Not available.
METAR KSOP 031815Z AUTO 18005KT 10SM BKN006 BKN012 OVC018 23/22 A2994 RMK AO1

More Conditions Fewer Conditions

10-Day Weather Forecast

×

Almanac

Astronomy

Jul. 03, 2015 Rise Set
Actual Time
Civil Twilight
Nautical Twilight
Astronomical Twilight
Moon
Length of Visible Light
Length of Day
Tomorrow will be .
, % of the Moon is Illuminated

Today's Extremes

State Highs State Lows

Community

WunderPhotos

Upload Photos

1,834,736 photos uploaded!

WunderBlogs® & News

Nearby

Air Quality

  Air Quality AQ Index Pollutant
Not available.

Snow Depth

Station Depth Elevation

Earthquake Activity

City Distance Mag. Time & Date
Minimum magnitude displayed is 2.5.

Coastal Water Temperatures

Place Temperature

Stations

Nearby Weather Stations

Station Location Temp. Windchill Dew Point Humidity Wind Precip. Elev Updated Type